createdAt,value
2023-03-16T00:01:44.203Z,99481.59
2023-03-16T00:04:10.861Z,99471.22
2023-03-16T00:06:37.609Z,99480.09
2023-03-16T00:09:04.565Z,99483.72
2023-03-16T00:11:31.342Z,99473.84
2023-03-16T00:13:58.734Z,99460.34
2023-03-16T00:16:25.618Z,99468.28
2023-03-16T00:18:52.376Z,99463.13
2023-03-16T00:21:19.115Z,99468.56
2023-03-16T00:23:45.872Z,99461.06
2023-03-16T00:26:13.185Z,99452.28
2023-03-16T00:28:41.531Z,99443.97
2023-03-16T00:31:12.360Z,99449.13
2023-03-16T00:33:39.712Z,99445.22
2023-03-16T00:36:09.304Z,99443.28
2023-03-16T00:38:38.751Z,99428.69
2023-03-16T00:41:07.681Z,99423.16
2023-03-16T00:43:45.712Z,99417.84
2023-03-16T00:46:15.469Z,99411.03
2023-03-16T00:48:45.759Z,99402.56
2023-03-16T00:51:18.208Z,99384.47
2023-03-16T00:53:46.069Z,99385.44
2023-03-16T00:56:13.838Z,99392.56
2023-03-16T00:58:43.127Z,99387.84
2023-03-16T01:01:14.430Z,99383.38
2023-03-16T01:03:41.523Z,99370.97
2023-03-16T01:06:13.994Z,99362.75
2023-03-16T01:08:42.286Z,99364.00
2023-03-16T01:11:13.147Z,99349.66
2023-03-16T01:13:40.168Z,99331.28
2023-03-16T01:16:09.459Z,99329.31
2023-03-16T01:18:36.381Z,99312.31
2023-03-16T01:21:05.876Z,99308.53
2023-03-16T01:23:34.312Z,99305.06
2023-03-16T01:26:02.173Z,99286.22
2023-03-16T01:28:31.860Z,99269.66
2023-03-16T01:31:05.233Z,99266.03
2023-03-16T01:33:33.826Z,99254.72
2023-03-16T01:36:07.068Z,99242.59
2023-03-16T01:38:42.363Z,99244.00
2023-03-16T01:41:10.579Z,99238.13
2023-03-16T01:43:40.348Z,99244.41
2023-03-16T01:46:07.102Z,99233.00
2023-03-16T01:48:56.066Z,99237.88
2023-03-16T01:51:25.321Z,99236.88
2023-03-16T01:53:57.706Z,99224.31
2023-03-16T01:56:34.755Z,99211.06
2023-03-16T01:59:07.055Z,99205.50
2023-03-16T02:01:34.073Z,99208.03
2023-03-16T02:04:14.790Z,99198.94
2023-03-16T02:06:42.378Z,99185.72
2023-03-16T02:09:09.896Z,99176.50
2023-03-16T02:11:36.993Z,99174.66
2023-03-16T02:14:12.624Z,99164.31
2023-03-16T02:16:42.001Z,99156.38
2023-03-16T02:19:14.010Z,99149.13
2023-03-16T02:22:02.173Z,99147.16
2023-03-16T02:24:31.065Z,99139.91
2023-03-16T02:27:04.636Z,99123.19
2023-03-16T02:29:55.124Z,99112.41
2023-03-16T02:32:24.484Z,99106.13
2023-03-16T02:34:51.882Z,99101.66
2023-03-16T02:37:19.160Z,99092.44
2023-03-16T02:39:45.857Z,99078.38
2023-03-16T02:42:19.535Z,99078.75
2023-03-16T02:44:52.207Z,99062.69
2023-03-16T02:47:34.111Z,99065.50
2023-03-16T02:50:01.829Z,99055.56
2023-03-16T02:52:28.519Z,99054.44
2023-03-16T02:54:55.362Z,99048.03
2023-03-16T02:57:22.043Z,99048.84
2023-03-16T02:59:49.287Z,99040.06
2023-03-16T03:02:16.328Z,99042.72
2023-03-16T03:04:46.187Z,99039.41
2023-03-16T03:07:14.364Z,99035.47
2023-03-16T03:09:58.992Z,99035.47
2023-03-16T03:12:26.011Z,99025.69
2023-03-16T03:14:52.662Z,99022.34
2023-03-16T03:17:21.430Z,99019.56
2023-03-16T03:19:48.180Z,99021.53
2023-03-16T03:22:18.633Z,99011.28
2023-03-16T03:24:45.666Z,99013.94
2023-03-16T03:27:12.339Z,99011.97
2023-03-16T03:29:39.910Z,99010.97
2023-03-16T03:32:07.107Z,99010.69
2023-03-16T03:34:34.027Z,99008.19
2023-03-16T03:37:01.258Z,99003.03
2023-03-16T03:39:28.480Z,98993.09
2023-03-16T03:41:55.333Z,98998.41
2023-03-16T03:44:24.364Z,99002.75
2023-03-16T03:46:51.726Z,98996.44
2023-03-16T03:49:18.902Z,98980.38
2023-03-16T03:51:47.537Z,98974.75
2023-03-16T03:54:17.637Z,98975.63
2023-03-16T03:56:52.571Z,98971.81
2023-03-16T03:59:20.245Z,98972.78
2023-03-16T04:02:05.512Z,98957.75
2023-03-16T04:04:42.135Z,98959.41
2023-03-16T04:07:11.609Z,98950.63
2023-03-16T04:09:39.454Z,98937.22
2023-03-16T04:12:08.378Z,98942.53
2023-03-16T04:14:35.201Z,98934.56
2023-03-16T04:17:05.826Z,98931.72
2023-03-16T04:19:35.927Z,98931.72
2023-03-16T04:22:04.883Z,98931.31
2023-03-16T04:24:34.356Z,98931.31
2023-03-16T04:27:02.815Z,98921.34
2023-03-16T04:29:29.859Z,98917.19
2023-03-16T04:31:58.048Z,98912.88
2023-03-16T04:34:26.953Z,98904.94
2023-03-16T04:36:57.194Z,98898.63
2023-03-16T04:39:23.897Z,98889.69
2023-03-16T04:41:51.518Z,98884.06
2023-03-16T04:44:22.197Z,98885.91
2023-03-16T04:46:50.402Z,98868.31
2023-03-16T04:49:18.078Z,98863.69
2023-03-16T04:51:45.996Z,98850.59
2023-03-16T04:54:16.130Z,98843.47
2023-03-16T04:56:43.992Z,98835.38
2023-03-16T04:59:31.936Z,98834.50
2023-03-16T05:02:14.341Z,98838.16
2023-03-16T05:04:41.127Z,98839.81
2023-03-16T05:07:11.593Z,98837.00
2023-03-16T05:09:41.973Z,98836.72
2023-03-16T05:12:09.328Z,98833.22
2023-03-16T05:14:36.378Z,98819.94
2023-03-16T05:17:32.735Z,98831.22
2023-03-16T05:19:59.898Z,98821.47
2023-03-16T05:22:27.509Z,98822.97
2023-03-16T05:25:15.245Z,98815.31
2023-03-16T05:27:46.587Z,98808.03
2023-03-16T05:30:19.180Z,98812.38
2023-03-16T05:32:46.995Z,98793.13
2023-03-16T05:35:14.266Z,98790.81
2023-03-16T05:37:42.138Z,98783.00
2023-03-16T05:40:18.021Z,98781.03
2023-03-16T05:42:56.001Z,98782.72
2023-03-16T05:45:24.114Z,98776.59
2023-03-16T05:48:07.297Z,98761.66
2023-03-16T05:50:39.007Z,98772.59
2023-03-16T05:53:06.110Z,98766.78
2023-03-16T05:55:32.894Z,98768.28
2023-03-16T05:58:05.162Z,98764.66
2023-03-16T06:00:34.574Z,98770.94
2023-03-16T06:03:15.753Z,98769.13
2023-03-16T06:05:43.518Z,98758.69
2023-03-16T06:08:11.514Z,98753.53
2023-03-16T06:10:42.261Z,98757.53
2023-03-16T06:13:09.089Z,98756.19
2023-03-16T06:15:36.356Z,98750.06
2023-03-16T06:18:03.718Z,98746.41
2023-03-16T06:20:30.686Z,98747.41
2023-03-16T06:22:57.742Z,98753.84
2023-03-16T06:25:24.529Z,98743.91
2023-03-16T06:27:52.042Z,98743.22
2023-03-16T06:30:19.722Z,98743.41
2023-03-16T06:32:46.617Z,98726.34
2023-03-16T06:35:14.965Z,98733.63
2023-03-16T06:37:48.490Z,98724.66
2023-03-16T06:40:33.616Z,98727.50
2023-03-16T06:43:00.893Z,98724.84
2023-03-16T06:45:28.939Z,98718.53
2023-03-16T06:47:56.980Z,98718.53
2023-03-16T06:50:24.068Z,98713.22
2023-03-16T06:52:51.634Z,98708.94
2023-03-16T06:55:18.752Z,98709.28
2023-03-16T06:57:47.515Z,98701.47
2023-03-16T07:00:16.651Z,98707.28
2023-03-16T07:02:43.925Z,98703.81
2023-03-16T07:05:15.220Z,98714.41
2023-03-16T07:07:43.797Z,98711.91
2023-03-16T07:10:13.926Z,98705.47
2023-03-16T07:12:42.305Z,98703.81
2023-03-16T07:15:10.177Z,98694.38
2023-03-16T07:17:37.058Z,98693.88
2023-03-16T07:20:10.086Z,98693.72
2023-03-16T07:22:38.262Z,98683.78
2023-03-16T07:25:07.302Z,98689.09
2023-03-16T07:27:34.380Z,98692.72
2023-03-16T07:30:06.711Z,98690.06
2023-03-16T07:32:36.867Z,98691.88
2023-03-16T07:35:05.023Z,98690.88
2023-03-16T07:37:34.376Z,98695.38
2023-03-16T07:40:07.240Z,98694.06
2023-03-16T07:42:35.578Z,98695.53
2023-03-16T07:45:08.875Z,98687.06
2023-03-16T07:47:35.872Z,98679.78
2023-03-16T07:50:22.966Z,98676.47
2023-03-16T07:52:51.217Z,98681.47
2023-03-16T07:55:18.146Z,98677.50
2023-03-16T07:57:48.027Z,98680.44
2023-03-16T08:00:23.841Z,98673.00
2023-03-16T08:02:51.976Z,98670.84
2023-03-16T08:05:18.668Z,98664.72
2023-03-16T08:07:49.743Z,98660.91
2023-03-16T08:10:21.123Z,98663.22
2023-03-16T08:13:06.306Z,98662.09
2023-03-16T08:15:35.119Z,98658.09
2023-03-16T08:18:10.186Z,98662.25
2023-03-16T08:20:37.233Z,98657.94
2023-03-16T08:23:04.251Z,98649.66
2023-03-16T08:25:37.845Z,98649.31
2023-03-16T08:28:10.703Z,98642.69
2023-03-16T08:30:44.821Z,98636.72
2023-03-16T08:33:23.403Z,98633.25
2023-03-16T08:35:51.798Z,98627.75
2023-03-16T08:38:19.354Z,98626.78
2023-03-16T08:40:49.420Z,98621.63
2023-03-16T08:43:19.245Z,98621.47
2023-03-16T08:45:46.953Z,98618.81
2023-03-16T08:48:15.496Z,98618.16
2023-03-16T08:50:45.383Z,98621.47
2023-03-16T08:53:14.203Z,98613.81
2023-03-16T08:55:42.025Z,98607.69
2023-03-16T08:58:10.472Z,98600.69
2023-03-16T09:00:38.321Z,98599.22
2023-03-16T09:03:05.753Z,98593.91
2023-03-16T09:05:32.821Z,98596.22
2023-03-16T09:08:00.246Z,98589.41
2023-03-16T09:10:27.700Z,98588.25
2023-03-16T09:12:54.786Z,98585.28
2023-03-16T09:15:22.039Z,98586.91
2023-03-16T09:17:49.166Z,98581.59
2023-03-16T09:20:22.852Z,98577.44
2023-03-16T09:22:55.055Z,98581.09
2023-03-16T09:25:22.680Z,98580.91
2023-03-16T09:27:49.451Z,98574.56
2023-03-16T09:30:17.035Z,98577.91
2023-03-16T09:32:44.909Z,98577.91
2023-03-16T09:35:12.025Z,98572.72
2023-03-16T09:37:45.020Z,98564.69
2023-03-16T09:40:25.001Z,98558.56
2023-03-16T09:43:09.217Z,98554.00
2023-03-16T09:45:59.855Z,98553.53
2023-03-16T09:48:29.336Z,98548.19
2023-03-16T09:50:57.046Z,98544.88
2023-03-16T09:53:31.817Z,98544.22
2023-03-16T09:55:58.712Z,98545.84
2023-03-16T09:58:25.841Z,98534.22
2023-03-16T10:01:12.170Z,98536.97
2023-03-16T10:04:01.891Z,98538.53
2023-03-16T10:06:28.985Z,98543.72
2023-03-16T10:09:01.396Z,98540.22
2023-03-16T10:11:38.111Z,98536.72
2023-03-16T10:14:18.982Z,98522.09
2023-03-16T10:17:13.715Z,98523.03
2023-03-16T10:19:52.803Z,98514.03
2023-03-16T10:22:26.411Z,98517.66
2023-03-16T10:25:27.546Z,98510.50
2023-03-16T10:27:54.343Z,98521.84
2023-03-16T10:30:24.631Z,98512.56
2023-03-16T10:32:52.350Z,98509.91
2023-03-16T10:35:47.409Z,98518.13
2023-03-16T10:38:46.693Z,98509.00
2023-03-16T10:41:20.656Z,98515.19
2023-03-16T10:44:06.339Z,98513.38
2023-03-16T10:46:39.516Z,98514.88
2023-03-16T10:49:18.120Z,98509.22
2023-03-16T10:51:45.106Z,98506.50
2023-03-16T10:54:27.704Z,98505.56
2023-03-16T10:56:55.429Z,98503.69
2023-03-16T10:59:35.696Z,98495.88
2023-03-16T11:02:15.089Z,98496.06
2023-03-16T11:04:41.991Z,98486.25
2023-03-16T11:07:15.599Z,98486.25
2023-03-16T11:09:43.169Z,98494.75
2023-03-16T11:12:25.546Z,98489.75
2023-03-16T11:14:52.830Z,98484.78
2023-03-16T11:17:36.487Z,98479.09
2023-03-16T11:20:14.674Z,98474.81
2023-03-16T11:22:43.198Z,98474.44
2023-03-16T11:25:15.674Z,98466.97
2023-03-16T11:27:49.598Z,98463.44
2023-03-16T11:30:49.251Z,98461.97
2023-03-16T11:33:16.527Z,98466.09
2023-03-16T11:35:58.723Z,98459.97
2023-03-16T11:38:45.255Z,98461.44
2023-03-16T11:41:20.118Z,98459.44
2023-03-16T11:43:56.993Z,98452.22
2023-03-16T11:46:38.795Z,98448.56
2023-03-16T11:49:17.817Z,98447.06
2023-03-16T11:51:48.827Z,98438.75
2023-03-16T11:54:30.638Z,98440.44
2023-03-16T11:57:08.728Z,98435.56
2023-03-16T12:00:01.038Z,98442.78
2023-03-16T12:02:56.513Z,98435.94
2023-03-16T12:05:49.636Z,98432.47
2023-03-16T12:08:35.230Z,98428.50
2023-03-16T12:11:24.654Z,98430.13
2023-03-16T12:14:06.575Z,98418.78
2023-03-16T12:16:48.713Z,98417.59
2023-03-16T12:19:22.999Z,98419.72
2023-03-16T12:22:01.251Z,98414.22
2023-03-16T12:24:33.971Z,98408.44
2023-03-16T12:27:02.769Z,98394.63
2023-03-16T12:29:51.781Z,98404.50
2023-03-16T12:32:30.982Z,98408.63
2023-03-16T12:35:10.892Z,98406.53
2023-03-16T12:37:43.064Z,98400.28
2023-03-16T12:40:24.829Z,98410.84
2023-03-16T12:43:39.395Z,98410.38
2023-03-16T12:46:14.150Z,98407.38
2023-03-16T12:48:46.680Z,98404.09
2023-03-16T12:51:13.726Z,98395.03
2023-03-16T12:53:54.793Z,98405.69
2023-03-16T12:56:49.599Z,98397.09
2023-03-16T12:59:19.697Z,98399.19
2023-03-16T13:01:51.115Z,98404.34
2023-03-16T13:04:21.277Z,98393.88
2023-03-16T13:06:52.332Z,98399.19
2023-03-16T13:09:28.190Z,98402.66
2023-03-16T13:11:55.500Z,98406.28
2023-03-16T13:14:40.571Z,98407.53
2023-03-16T13:17:16.892Z,98407.16
2023-03-16T13:19:46.610Z,98411.91
2023-03-16T13:22:22.412Z,98413.50
2023-03-16T13:24:53.856Z,98405.78
2023-03-16T13:27:27.126Z,98404.75
2023-03-16T13:29:59.143Z,98404.47
2023-03-16T13:32:30.840Z,98399.50
2023-03-16T13:35:00.667Z,98397.00
2023-03-16T13:37:32.012Z,98395.72
2023-03-16T13:40:02.338Z,98384.06
2023-03-16T13:42:34.128Z,98379.75
2023-03-16T13:45:14.375Z,98377.72
2023-03-16T13:47:46.111Z,98375.53
2023-03-16T13:50:14.290Z,98378.47
2023-03-16T13:52:43.283Z,98374.81
2023-03-16T13:55:19.611Z,98365.91
2023-03-16T13:57:48.357Z,98373.66
2023-03-16T14:00:24.907Z,98360.97
2023-03-16T14:02:57.195Z,98356.34
2023-03-16T14:05:26.186Z,98355.06
2023-03-16T14:07:54.995Z,98360.59
2023-03-16T14:10:24.834Z,98347.91
2023-03-16T14:13:06.788Z,98355.25
2023-03-16T14:15:34.384Z,98364.63
2023-03-16T14:18:21.283Z,98353.88
2023-03-16T14:20:52.335Z,98355.66
2023-03-16T14:23:31.288Z,98355.91
2023-03-16T14:25:58.040Z,98358.84
2023-03-16T14:28:33.167Z,98352.34
2023-03-16T14:31:12.808Z,98338.50
2023-03-16T14:33:43.005Z,98344.38
2023-03-16T14:36:14.483Z,98350.03
2023-03-16T14:38:43.761Z,98349.94
2023-03-16T14:41:26.444Z,98342.78
2023-03-16T14:43:59.666Z,98342.81
2023-03-16T14:46:37.697Z,98341.56
2023-03-16T14:49:10.832Z,98333.03
2023-03-16T14:51:40.346Z,98318.63
2023-03-16T14:54:12.895Z,98322.16
2023-03-16T14:56:39.716Z,98313.16
2023-03-16T14:59:06.857Z,98323.50
2023-03-16T15:01:33.780Z,98329.03
2023-03-16T15:04:00.954Z,98321.81
2023-03-16T15:06:27.812Z,98318.97
2023-03-16T15:08:54.749Z,98325.75
2023-03-16T15:11:21.840Z,98327.16
2023-03-16T15:13:48.755Z,98324.13
2023-03-16T15:16:15.530Z,98330.88
2023-03-16T15:18:43.000Z,98319.19
2023-03-16T15:21:12.954Z,98326.84
2023-03-16T15:23:41.550Z,98326.88
2023-03-16T15:26:11.246Z,98322.97
2023-03-16T15:28:38.719Z,98320.72
2023-03-16T15:31:06.279Z,98317.63
2023-03-16T15:33:33.289Z,98319.03
2023-03-16T15:36:02.733Z,98318.47
2023-03-16T15:38:34.733Z,98317.22
2023-03-16T15:41:02.019Z,98315.72
2023-03-16T15:43:30.681Z,98318.22
2023-03-16T15:45:59.957Z,98311.66
2023-03-16T15:48:27.137Z,98314.16
2023-03-16T15:51:01.134Z,98319.47
2023-03-16T15:53:59.570Z,98314.78
2023-03-16T15:56:33.513Z,98315.19
2023-03-16T15:59:06.206Z,98307.50
2023-03-16T16:01:44.953Z,98311.19
2023-03-16T16:04:19.613Z,98300.50
2023-03-16T16:06:47.590Z,98304.19
2023-03-16T16:09:14.435Z,98300.06
2023-03-16T16:11:42.011Z,98287.09
2023-03-16T16:14:14.951Z,98285.06
2023-03-16T16:16:44.886Z,98292.69
2023-03-16T16:19:16.156Z,98296.78
2023-03-16T16:21:43.887Z,98295.09
2023-03-16T16:24:11.162Z,98297.56
2023-03-16T16:26:51.946Z,98295.44
2023-03-16T16:29:23.788Z,98293.47
2023-03-16T16:31:52.027Z,98287.88
2023-03-16T16:34:21.950Z,98288.41
2023-03-16T16:36:49.475Z,98302.59
2023-03-16T16:39:16.903Z,98303.44
2023-03-16T16:41:44.852Z,98306.56
2023-03-16T16:44:18.799Z,98301.41
2023-03-16T16:46:48.255Z,98312.47
2023-03-16T16:49:24.552Z,98321.09
2023-03-16T16:51:52.724Z,98329.22
2023-03-16T16:54:22.001Z,98326.50
2023-03-16T16:56:54.720Z,98325.09
2023-03-16T16:59:24.942Z,98337.41
2023-03-16T17:01:54.188Z,98330.66
2023-03-16T17:04:24.644Z,98334.81
2023-03-16T17:07:00.830Z,98332.16
2023-03-16T17:09:29.328Z,98329.31
2023-03-16T17:11:59.224Z,98324.16
2023-03-16T17:14:28.277Z,98332.38
2023-03-16T17:16:55.929Z,98337.09
2023-03-16T17:19:28.068Z,98330.91
2023-03-16T17:21:57.453Z,98337.28
2023-03-16T17:24:24.449Z,98342.19
2023-03-16T17:26:54.051Z,98340.69
2023-03-16T17:29:42.754Z,98343.97
2023-03-16T17:32:20.061Z,98340.25
2023-03-16T17:34:46.984Z,98349.25
2023-03-16T17:37:20.197Z,98343.50
2023-03-16T17:39:47.160Z,98345.97
2023-03-16T17:42:18.454Z,98351.03
2023-03-16T17:44:52.003Z,98352.06
2023-03-16T17:47:26.702Z,98349.34
2023-03-16T17:49:54.683Z,98337.84
2023-03-16T17:52:25.468Z,98341.53
2023-03-16T17:54:53.641Z,98349.94
2023-03-16T17:57:30.414Z,98341.53
2023-03-16T17:59:58.353Z,98349.53
2023-03-16T18:02:49.961Z,98357.16
2023-03-16T18:05:37.510Z,98354.69
2023-03-16T18:08:15.204Z,98350.56
2023-03-16T18:10:43.341Z,98360.22
2023-03-16T18:13:36.947Z,98372.91
2023-03-16T18:16:05.862Z,98381.31
2023-03-16T18:18:42.750Z,98382.72
2023-03-16T18:21:19.137Z,98386.16
2023-03-16T18:23:46.449Z,98385.13
2023-03-16T18:26:13.229Z,98396.78
2023-03-16T18:28:39.906Z,98389.69
2023-03-16T18:31:17.802Z,98404.03
2023-03-16T18:33:46.811Z,98410.19
2023-03-16T18:36:17.777Z,98415.88
2023-03-16T18:38:47.490Z,98414.19
2023-03-16T18:41:16.949Z,98420.81
2023-03-16T18:43:44.335Z,98428.91
2023-03-16T18:46:35.512Z,98429.28
2023-03-16T18:49:04.406Z,98425.53
2023-03-16T18:51:31.437Z,98433.34
2023-03-16T18:53:58.469Z,98436.63
2023-03-16T18:56:27.823Z,98428.56
2023-03-16T18:58:56.667Z,98430.16
2023-03-16T19:01:30.061Z,98434.22
2023-03-16T19:03:58.889Z,98438.44
2023-03-16T19:06:31.523Z,98442.78
2023-03-16T19:09:26.678Z,98438.44
2023-03-16T19:11:53.686Z,98438.72
2023-03-16T19:14:26.777Z,98446.06
2023-03-16T19:16:54.979Z,98445.47
2023-03-16T19:19:23.374Z,98450.59
2023-03-16T19:21:53.760Z,98454.56
2023-03-16T19:24:30.197Z,98456.09
2023-03-16T19:26:56.966Z,98453.69
2023-03-16T19:29:33.026Z,98446.16
2023-03-16T19:32:00.425Z,98452.28
2023-03-16T19:34:27.901Z,98454.59
2023-03-16T19:36:54.623Z,98460.66
2023-03-16T19:39:21.634Z,98462.88
2023-03-16T19:41:54.876Z,98466.69
2023-03-16T19:44:25.254Z,98471.13
2023-03-16T19:46:55.394Z,98469.66
2023-03-16T19:49:27.062Z,98450.59
2023-03-16T19:51:55.049Z,98462.25
2023-03-16T19:54:27.116Z,98452.66
2023-03-16T19:56:56.047Z,98447.75
2023-03-16T19:59:26.658Z,98450.19
2023-03-16T20:01:53.451Z,98442.19
2023-03-16T20:04:26.123Z,98448.91
2023-03-16T20:06:53.973Z,98450.53
2023-03-16T20:09:24.102Z,98444.28
2023-03-16T20:11:50.938Z,98453.81
2023-03-16T20:14:23.782Z,98456.84
2023-03-16T20:16:51.088Z,98459.88
2023-03-16T20:19:18.123Z,98461.66
2023-03-16T20:21:45.547Z,98457.97
2023-03-16T20:24:18.686Z,98456.16
2023-03-16T20:26:47.129Z,98447.28
2023-03-16T20:29:33.270Z,98456.84
2023-03-16T20:32:01.339Z,98458.50
2023-03-16T20:34:31.057Z,98461.22
2023-03-16T20:36:58.315Z,98460.88
2023-03-16T20:39:25.036Z,98464.34
2023-03-16T20:41:52.586Z,98451.28
2023-03-16T20:44:21.294Z,98449.25
2023-03-16T20:46:48.567Z,98450.53
2023-03-16T20:49:25.284Z,98456.09
2023-03-16T20:51:52.334Z,98456.91
2023-03-16T20:54:19.281Z,98456.16
2023-03-16T20:56:46.884Z,98445.63
2023-03-16T20:59:24.950Z,98458.13
2023-03-16T21:01:54.614Z,98460.53
2023-03-16T21:04:27.839Z,98458.88
2023-03-16T21:06:56.842Z,98466.25
2023-03-16T21:09:23.711Z,98464.16
2023-03-16T21:11:50.838Z,98467.44
2023-03-16T21:14:22.049Z,98471.56
2023-03-16T21:16:49.497Z,98464.56
2023-03-16T21:19:23.080Z,98455.19
2023-03-16T21:21:50.073Z,98454.56
2023-03-16T21:24:16.922Z,98454.19
2023-03-16T21:26:45.019Z,98458.50
2023-03-16T21:29:16.173Z,98463.25
2023-03-16T21:31:43.235Z,98471.72
2023-03-16T21:34:23.945Z,98463.53
2023-03-16T21:36:50.871Z,98462.50
2023-03-16T21:39:20.489Z,98453.88
2023-03-16T21:41:49.850Z,98462.31
2023-03-16T21:44:17.407Z,98461.69
2023-03-16T21:46:47.261Z,98465.56
2023-03-16T21:49:14.900Z,98465.22
2023-03-16T21:51:43.242Z,98456.31
2023-03-16T21:54:16.856Z,98458.53
2023-03-16T21:56:44.181Z,98461.59
2023-03-16T21:59:11.557Z,98461.50
2023-03-16T22:01:54.388Z,98459.03
2023-03-16T22:04:25.291Z,98458.16
2023-03-16T22:06:52.255Z,98462.84
2023-03-16T22:09:20.945Z,98465.28
2023-03-16T22:11:47.917Z,98459.13
2023-03-16T22:14:14.615Z,98463.81
2023-03-16T22:16:41.840Z,98469.53
2023-03-16T22:19:13.622Z,98477.63
2023-03-16T22:21:42.753Z,98472.75
2023-03-16T22:24:22.376Z,98482.38
2023-03-16T22:26:50.901Z,98475.59
2023-03-16T22:29:29.845Z,98474.69
2023-03-16T22:32:04.266Z,98468.72
2023-03-16T22:35:05.162Z,98473.66
2023-03-16T22:37:31.934Z,98470.84
2023-03-16T22:39:58.833Z,98480.28
2023-03-16T22:42:32.244Z,98479.91
2023-03-16T22:45:00.782Z,98473.41
2023-03-16T22:47:32.262Z,98480.19
2023-03-16T22:49:59.266Z,98489.19
2023-03-16T22:52:30.935Z,98483.66
2023-03-16T22:54:59.703Z,98483.09
2023-03-16T22:57:26.634Z,98484.50
2023-03-16T22:59:53.494Z,98490.03
2023-03-16T23:02:24.258Z,98493.34
2023-03-16T23:04:51.146Z,98494.97
2023-03-16T23:07:18.276Z,98498.84
2023-03-16T23:09:45.050Z,98491.28
2023-03-16T23:12:21.288Z,98479.88
2023-03-16T23:14:48.697Z,98485.28
2023-03-16T23:17:24.722Z,98492.47
2023-03-16T23:19:51.979Z,98496.50
2023-03-16T23:22:18.787Z,98494.06
2023-03-16T23:24:45.810Z,98495.06
2023-03-16T23:27:22.374Z,98495.13
2023-03-16T23:29:49.511Z,98495.22
2023-03-16T23:32:17.211Z,98494.78
2023-03-16T23:34:44.650Z,98496.41
2023-03-16T23:37:11.985Z,98485.50
2023-03-16T23:39:39.783Z,98491.47
2023-03-16T23:42:07.544Z,98493.50
2023-03-16T23:44:34.763Z,98500.13
2023-03-16T23:47:02.152Z,98499.09
2023-03-16T23:49:32.785Z,98507.25
2023-03-16T23:52:01.721Z,98497.44
2023-03-16T23:54:32.693Z,98492.75
2023-03-16T23:56:59.569Z,98499.38
2023-03-16T23:59:27.402Z,98489.88
